createdAt,value
2023-02-12T00:01:10.247Z,2.50
2023-02-12T00:03:38.465Z,2.40
2023-02-12T00:06:07.102Z,2.40
2023-02-12T00:08:35.408Z,2.40
2023-02-12T00:11:10.790Z,2.40
2023-02-12T00:13:38.849Z,2.40
2023-02-12T00:16:08.825Z,2.30
2023-02-12T00:18:37.296Z,2.30
2023-02-12T00:21:05.996Z,2.30
2023-02-12T00:23:34.115Z,2.30
2023-02-12T00:26:05.828Z,2.30
2023-02-12T00:28:35.219Z,2.20
2023-02-12T00:31:07.406Z,2.20
2023-02-12T00:33:35.464Z,2.10
2023-02-12T00:36:03.873Z,2.10
2023-02-12T00:38:31.840Z,2.10
2023-02-12T00:40:59.733Z,2.10
2023-02-12T00:43:27.663Z,2.00
2023-02-12T00:45:57.158Z,2.00
2023-02-12T00:48:25.341Z,2.00
2023-02-12T00:50:53.353Z,1.90
2023-02-12T00:53:21.297Z,1.90
2023-02-12T00:55:49.321Z,1.90
2023-02-12T00:58:18.976Z,1.90
2023-02-12T01:00:47.171Z,1.80
2023-02-12T01:03:16.917Z,1.80
2023-02-12T01:05:44.915Z,1.80
2023-02-12T01:08:14.315Z,1.70
2023-02-12T01:10:42.890Z,1.70
2023-02-12T01:13:13.604Z,1.70
2023-02-12T01:15:42.222Z,1.70
2023-02-12T01:18:10.230Z,1.70
2023-02-12T01:20:41.392Z,1.70
2023-02-12T01:23:09.522Z,1.70
2023-02-12T01:25:39.348Z,1.60
2023-02-12T01:28:07.291Z,1.60
2023-02-12T01:30:35.193Z,1.60
2023-02-12T01:33:03.141Z,1.70
2023-02-12T01:35:31.091Z,1.70
2023-02-12T01:38:00.594Z,1.70
2023-02-12T01:40:28.570Z,1.70
2023-02-12T01:42:56.485Z,1.70
2023-02-12T01:45:48.646Z,1.70
2023-02-12T01:48:18.837Z,1.60
2023-02-12T01:50:48.435Z,1.60
2023-02-12T01:53:20.382Z,1.50
2023-02-12T01:55:50.796Z,1.50
2023-02-12T01:58:20.190Z,1.50
2023-02-12T02:00:48.792Z,1.50
2023-02-12T02:03:17.643Z,1.50
2023-02-12T02:05:50.874Z,1.50
2023-02-12T02:08:20.234Z,1.40
2023-02-12T02:10:48.144Z,1.40
2023-02-12T02:13:33.554Z,1.40
2023-02-12T02:16:05.544Z,1.40
2023-02-12T02:18:39.989Z,1.40
2023-02-12T02:21:26.462Z,1.30
2023-02-12T02:24:22.167Z,1.30
2023-02-12T02:27:15.035Z,1.30
2023-02-12T02:30:16.296Z,1.30
2023-02-12T02:32:55.389Z,1.30
2023-02-12T02:35:29.005Z,1.20
2023-02-12T02:38:07.263Z,1.20
2023-02-12T02:40:41.891Z,1.10
2023-02-12T02:43:16.622Z,1.10
2023-02-12T02:45:48.142Z,1.10
2023-02-12T02:48:21.919Z,1.00
2023-02-12T02:50:54.039Z,1.00
2023-02-12T02:53:27.650Z,1.00
2023-02-12T02:55:58.250Z,1.00
2023-02-12T02:58:32.094Z,1.00
2023-02-12T03:01:03.874Z,0.90
2023-02-12T03:03:39.317Z,0.90
2023-02-12T03:06:11.681Z,0.90
2023-02-12T03:08:43.362Z,0.90
2023-02-12T03:11:18.789Z,0.90
2023-02-12T03:13:52.019Z,0.80
2023-02-12T03:16:24.331Z,0.80
2023-02-12T03:18:57.985Z,0.80
2023-02-12T03:21:34.110Z,0.70
2023-02-12T03:24:08.625Z,0.70
2023-02-12T03:26:43.504Z,0.60
2023-02-12T03:29:11.730Z,0.60
2023-02-12T03:31:55.261Z,0.60
2023-02-12T03:34:32.233Z,0.60
2023-02-12T03:37:05.760Z,0.60
2023-02-12T03:39:46.420Z,0.60
2023-02-12T03:42:19.576Z,0.60
2023-02-12T03:44:54.100Z,0.60
2023-02-12T03:47:26.591Z,0.60
2023-02-12T03:50:07.542Z,0.60
2023-02-12T03:52:36.097Z,0.60
2023-02-12T03:55:05.727Z,0.50
2023-02-12T03:57:39.935Z,0.50
2023-02-12T04:00:10.958Z,0.50
2023-02-12T04:02:39.058Z,0.50
2023-02-12T04:05:09.885Z,0.40
2023-02-12T04:07:38.436Z,0.40
2023-02-12T04:10:07.460Z,0.40
2023-02-12T04:12:41.379Z,0.40
2023-02-12T04:15:40.101Z,0.30
2023-02-12T04:18:14.234Z,0.30
2023-02-12T04:20:55.397Z,0.30
2023-02-12T04:23:40.462Z,1.20
2023-02-12T04:26:18.454Z,0.30
2023-02-12T04:28:53.043Z,0.30
2023-02-12T04:31:25.377Z,0.30
2023-02-12T04:34:04.185Z,0.30
2023-02-12T04:36:38.131Z,0.30
2023-02-12T04:39:12.127Z,0.20
2023-02-12T04:41:40.518Z,0.20
2023-02-12T04:44:19.767Z,0.20
2023-02-12T04:46:47.685Z,0.20
2023-02-12T04:49:17.881Z,0.10
2023-02-12T04:51:47.951Z,0.10
2023-02-12T04:54:17.338Z,0.10
2023-02-12T04:56:46.024Z,0.10
2023-02-12T04:59:14.381Z,0.10
2023-02-12T05:01:44.268Z,0.00
2023-02-12T05:04:14.265Z,0.10
2023-02-12T05:06:42.721Z,0.10
2023-02-12T05:09:16.247Z,0.00
2023-02-12T05:11:44.479Z,0.00
2023-02-12T05:14:13.185Z,0.00
2023-02-12T05:16:41.487Z,0.00
2023-02-12T05:19:09.844Z,0.00
2023-02-12T05:21:38.039Z,0.00
2023-02-12T05:24:06.667Z,0.00
2023-02-12T05:26:36.455Z,-0.10
2023-02-12T05:29:04.598Z,-0.10
2023-02-12T05:31:32.689Z,-0.10
2023-02-12T05:34:00.684Z,-0.10
2023-02-12T05:36:29.331Z,-0.10
2023-02-12T05:38:59.907Z,0.00
2023-02-12T05:41:28.331Z,0.00
2023-02-12T05:43:57.598Z,0.10
2023-02-12T05:46:25.529Z,0.10
2023-02-12T05:48:53.561Z,0.10
2023-02-12T05:51:23.710Z,0.10
2023-02-12T05:53:53.904Z,0.10
2023-02-12T05:56:24.845Z,0.10
2023-02-12T05:58:55.338Z,0.10
2023-02-12T06:01:27.233Z,0.10
2023-02-12T06:03:55.476Z,0.10
2023-02-12T06:06:23.596Z,0.00
2023-02-12T06:08:51.819Z,0.00
2023-02-12T06:11:20.882Z,-0.10
2023-02-12T06:13:49.191Z,-0.10
2023-02-12T06:16:22.499Z,-0.10
2023-02-12T06:18:52.822Z,-0.20
2023-02-12T06:21:22.462Z,-0.20
2023-02-12T06:23:51.346Z,-0.20
2023-02-12T06:26:19.774Z,-0.20
2023-02-12T06:28:47.834Z,-0.20
2023-02-12T06:31:21.760Z,-0.20
2023-02-12T06:33:52.167Z,-0.20
2023-02-12T06:36:20.287Z,-0.20
2023-02-12T06:38:48.854Z,-0.30
2023-02-12T06:41:17.466Z,-0.20
2023-02-12T06:43:45.695Z,-0.20
2023-02-12T06:46:14.091Z,-0.20
2023-02-12T06:48:42.299Z,-0.20
2023-02-12T06:51:13.294Z,-0.20
2023-02-12T06:53:41.411Z,-0.20
2023-02-12T06:56:13.039Z,-0.20
2023-02-12T06:58:41.957Z,-0.20
2023-02-12T07:01:13.326Z,-0.20
2023-02-12T07:03:41.933Z,-0.20
2023-02-12T07:06:12.045Z,-0.20
2023-02-12T07:08:40.266Z,-0.20
2023-02-12T07:11:08.740Z,-0.10
2023-02-12T07:13:37.047Z,-0.10
2023-02-12T07:16:06.824Z,-0.10
2023-02-12T07:18:35.556Z,0.00
2023-02-12T07:21:04.019Z,0.10
2023-02-12T07:23:33.537Z,0.10
2023-02-12T07:26:03.591Z,0.10
2023-02-12T07:28:33.655Z,0.20
2023-02-12T07:31:02.464Z,0.20
2023-02-12T07:33:30.588Z,0.20
2023-02-12T07:36:01.649Z,0.30
2023-02-12T07:38:29.952Z,0.30
2023-02-12T07:41:10.456Z,0.30
2023-02-12T07:43:38.901Z,0.40
2023-02-12T07:46:11.677Z,0.40
2023-02-12T07:48:40.462Z,0.50
2023-02-12T07:51:10.100Z,0.60
2023-02-12T07:53:38.687Z,0.70
2023-02-12T07:56:13.173Z,0.70
2023-02-12T07:58:42.717Z,0.80
2023-02-12T08:01:16.329Z,0.90
2023-02-12T08:03:44.662Z,1.00
2023-02-12T08:06:14.321Z,1.00
2023-02-12T08:08:42.277Z,1.00
2023-02-12T08:11:13.667Z,1.10
2023-02-12T08:13:42.519Z,1.20
2023-02-12T08:16:12.964Z,1.20
2023-02-12T08:18:41.261Z,1.20
2023-02-12T08:21:10.698Z,1.30
2023-02-12T08:23:38.797Z,1.30
2023-02-12T08:26:14.264Z,1.40
2023-02-12T08:28:44.070Z,1.40
2023-02-12T08:31:17.768Z,1.50
2023-02-12T08:33:46.026Z,1.50
2023-02-12T08:36:17.057Z,1.60
2023-02-12T08:38:46.825Z,1.60
2023-02-12T08:41:19.278Z,1.70
2023-02-12T08:43:49.291Z,1.70
2023-02-12T08:46:19.221Z,1.70
2023-02-12T08:48:47.596Z,1.70
2023-02-12T08:51:18.498Z,1.80
2023-02-12T08:53:48.066Z,1.80
2023-02-12T08:56:18.809Z,1.80
2023-02-12T08:58:47.042Z,1.80
2023-02-12T09:01:16.950Z,1.80
2023-02-12T09:03:45.459Z,1.90
2023-02-12T09:06:14.924Z,1.90
2023-02-12T09:08:43.419Z,2.00
2023-02-12T09:11:13.796Z,2.00
2023-02-12T09:13:43.739Z,2.00
2023-02-12T09:16:11.689Z,2.00
2023-02-12T09:18:40.116Z,2.00
2023-02-12T09:21:10.227Z,2.10
2023-02-12T09:23:38.968Z,2.10
2023-02-12T09:26:08.150Z,2.10
2023-02-12T09:28:37.039Z,2.20
2023-02-12T09:31:08.584Z,2.20
2023-02-12T09:33:36.591Z,2.20
2023-02-12T09:36:05.838Z,2.30
2023-02-12T09:38:33.949Z,2.30
2023-02-12T09:41:25.334Z,2.30
2023-02-12T09:43:58.197Z,2.40
2023-02-12T09:46:31.669Z,2.40
2023-02-12T09:49:09.771Z,2.40
2023-02-12T09:51:39.438Z,2.40
2023-02-12T09:54:11.532Z,2.40
2023-02-12T09:56:41.617Z,2.40
2023-02-12T09:59:10.361Z,2.50
2023-02-12T10:01:39.729Z,2.50
2023-02-12T10:04:08.026Z,2.50
2023-02-12T10:06:46.666Z,2.50
2023-02-12T10:09:41.551Z,2.60
2023-02-12T10:12:17.000Z,2.60
2023-02-12T10:15:14.712Z,2.60
2023-02-12T10:17:49.002Z,2.70
2023-02-12T10:20:32.821Z,2.70
2023-02-12T10:23:12.375Z,2.70
2023-02-12T10:25:46.993Z,2.70
2023-02-12T10:28:17.829Z,2.70
2023-02-12T10:30:50.894Z,2.70
2023-02-12T10:33:26.759Z,2.80
2023-02-12T10:35:59.661Z,2.80
2023-02-12T10:38:31.284Z,2.80
2023-02-12T10:41:01.904Z,2.90
2023-02-12T10:43:30.411Z,2.90
2023-02-12T10:45:58.978Z,3.00
2023-02-12T10:48:32.641Z,3.00
2023-02-12T10:51:14.014Z,3.10
2023-02-12T10:53:43.602Z,3.10
2023-02-12T10:56:18.850Z,3.20
2023-02-12T10:58:57.586Z,3.20
2023-02-12T11:01:28.624Z,3.30
2023-02-12T11:04:00.456Z,3.20
2023-02-12T11:06:30.692Z,3.20
2023-02-12T11:08:59.431Z,3.30
2023-02-12T11:11:30.730Z,3.30
2023-02-12T11:14:01.164Z,3.30
2023-02-12T11:16:32.040Z,3.30
2023-02-12T11:19:04.720Z,3.30
2023-02-12T11:21:33.507Z,3.40
2023-02-12T11:24:28.912Z,3.40
2023-02-12T11:27:13.500Z,3.40
2023-02-12T11:29:42.023Z,3.40
2023-02-12T11:32:17.251Z,3.40
2023-02-12T11:35:07.098Z,3.40
2023-02-12T11:37:40.720Z,3.40
2023-02-12T11:40:15.162Z,3.50
2023-02-12T11:42:50.346Z,3.40
2023-02-12T11:45:21.010Z,3.40
2023-02-12T11:47:49.737Z,3.50
2023-02-12T11:50:27.124Z,3.50
2023-02-12T11:52:58.761Z,3.50
2023-02-12T11:55:29.433Z,3.50
2023-02-12T11:58:04.764Z,3.50
2023-02-12T12:00:38.097Z,3.50
2023-02-12T12:03:13.644Z,3.50
2023-02-12T12:05:47.644Z,3.50
2023-02-12T12:08:22.518Z,3.50
2023-02-12T12:10:59.729Z,3.50
2023-02-12T12:13:34.781Z,3.50
2023-02-12T12:16:27.538Z,3.60
2023-02-12T12:19:17.449Z,3.60
2023-02-12T12:21:53.966Z,3.60
2023-02-12T12:24:28.724Z,3.60
2023-02-12T12:27:03.323Z,3.60
2023-02-12T12:29:45.978Z,3.70
2023-02-12T12:32:17.437Z,3.70
2023-02-12T12:34:45.428Z,4.60
2023-02-12T12:37:29.940Z,3.60
2023-02-12T12:40:27.713Z,3.60
2023-02-12T12:43:12.210Z,3.60
2023-02-12T12:46:06.169Z,3.70
2023-02-12T12:49:05.667Z,3.60
2023-02-12T12:52:03.139Z,3.70
2023-02-12T12:54:46.042Z,3.70
2023-02-12T12:57:24.892Z,3.70
2023-02-12T13:00:10.452Z,3.70
2023-02-12T13:03:08.168Z,3.70
2023-02-12T13:06:17.690Z,3.70
2023-02-12T13:09:00.650Z,3.70
2023-02-12T13:11:39.603Z,3.80
2023-02-12T13:14:27.654Z,3.70
2023-02-12T13:17:01.705Z,3.80
2023-02-12T13:19:40.104Z,3.80
2023-02-12T13:22:12.465Z,4.40
2023-02-12T13:24:46.307Z,3.80
2023-02-12T13:27:19.606Z,3.90
2023-02-12T13:29:52.403Z,3.80
2023-02-12T13:32:27.043Z,3.90
2023-02-12T13:34:57.102Z,3.70
2023-02-12T13:37:36.505Z,3.90
2023-02-12T13:40:06.225Z,3.90
2023-02-12T13:42:47.051Z,3.90
2023-02-12T13:45:28.511Z,3.50
2023-02-12T13:48:18.258Z,4.00
2023-02-12T13:50:54.216Z,4.00
2023-02-12T13:53:31.536Z,3.90
2023-02-12T13:56:07.965Z,4.00
2023-02-12T13:58:50.181Z,3.90
2023-02-12T14:01:37.325Z,4.00
2023-02-12T14:04:32.897Z,4.50
2023-02-12T14:07:03.732Z,4.10
2023-02-12T14:09:37.714Z,4.00
2023-02-12T14:12:09.309Z,4.20
2023-02-12T14:14:41.691Z,3.80
2023-02-12T14:17:53.978Z,4.10
2023-02-12T14:20:27.687Z,4.10
2023-02-12T14:23:24.336Z,4.20
2023-02-12T14:26:05.372Z,4.20
2023-02-12T14:28:52.486Z,4.10
2023-02-12T14:31:40.163Z,4.10
2023-02-12T14:34:48.979Z,4.20
2023-02-12T14:37:38.330Z,4.20
2023-02-12T14:40:31.965Z,4.10
2023-02-12T14:43:00.001Z,4.20
2023-02-12T14:45:30.651Z,4.10
2023-02-12T14:48:00.326Z,4.10
2023-02-12T14:50:38.282Z,4.10
2023-02-12T14:53:17.413Z,4.10
2023-02-12T14:55:48.278Z,4.10
2023-02-12T14:58:20.714Z,4.10
2023-02-12T15:00:50.371Z,4.20
2023-02-12T15:03:28.368Z,4.10
2023-02-12T15:06:02.089Z,4.10
2023-02-12T15:08:38.674Z,4.20
2023-02-12T15:11:17.267Z,4.10
2023-02-12T15:13:53.158Z,4.20
2023-02-12T15:16:33.133Z,4.20
2023-02-12T15:19:08.910Z,4.20
2023-02-12T15:21:38.411Z,4.20
2023-02-12T15:24:08.205Z,4.20
2023-02-12T15:26:41.476Z,4.20
2023-02-12T15:29:21.519Z,4.20
2023-02-12T15:31:54.183Z,4.20
2023-02-12T15:34:26.124Z,4.30
2023-02-12T15:36:55.894Z,4.50
2023-02-12T15:39:24.884Z,4.30
2023-02-12T15:41:52.898Z,4.30
2023-02-12T15:44:27.322Z,4.20
2023-02-12T15:47:04.073Z,4.30
2023-02-12T15:49:35.930Z,4.30
2023-02-12T15:52:08.310Z,4.30
2023-02-12T15:54:37.190Z,4.30
2023-02-12T15:57:12.659Z,4.30
2023-02-12T15:59:42.225Z,4.30
2023-02-12T16:02:21.647Z,4.30
2023-02-12T16:04:51.079Z,4.30
2023-02-12T16:07:20.408Z,4.30
2023-02-12T16:09:49.719Z,4.30
2023-02-12T16:12:22.668Z,4.30
2023-02-12T16:14:53.334Z,4.30
2023-02-12T16:17:29.435Z,4.30
2023-02-12T16:20:00.819Z,4.30
2023-02-12T16:22:33.614Z,4.30
2023-02-12T16:25:02.397Z,4.30
2023-02-12T16:27:32.134Z,4.30
2023-02-12T16:30:03.322Z,4.30
2023-02-12T16:32:36.657Z,4.30
2023-02-12T16:35:23.708Z,4.30
2023-02-12T16:38:01.206Z,4.30
2023-02-12T16:40:32.306Z,4.30
2023-02-12T16:43:07.879Z,4.30
2023-02-12T16:45:44.211Z,4.30
2023-02-12T16:48:19.662Z,4.30
2023-02-12T16:50:52.889Z,4.30
2023-02-12T16:53:27.194Z,4.30
2023-02-12T16:55:55.924Z,4.30
2023-02-12T16:58:25.798Z,4.30
2023-02-12T17:00:54.645Z,4.30
2023-02-12T17:03:22.769Z,4.30
2023-02-12T17:05:52.518Z,4.30
2023-02-12T17:08:22.943Z,4.30
2023-02-12T17:10:51.415Z,4.30
2023-02-12T17:13:20.824Z,4.30
2023-02-12T17:15:54.189Z,4.30
2023-02-12T17:18:22.651Z,4.30
2023-02-12T17:20:55.891Z,4.30
2023-02-12T17:23:24.808Z,4.30
2023-02-12T17:25:52.881Z,4.30
2023-02-12T17:28:21.124Z,4.30
2023-02-12T17:30:49.135Z,4.30
2023-02-12T17:33:17.975Z,4.30
2023-02-12T17:35:46.237Z,4.30
2023-02-12T17:38:15.703Z,4.30
2023-02-12T17:40:43.682Z,4.30
2023-02-12T17:43:11.749Z,4.30
2023-02-12T17:45:42.983Z,4.30
2023-02-12T17:48:11.181Z,4.30
2023-02-12T17:50:40.429Z,4.30
2023-02-12T17:53:08.914Z,4.30
2023-02-12T17:55:41.760Z,4.30
2023-02-12T17:58:10.120Z,4.50
2023-02-12T18:00:38.138Z,4.30
2023-02-12T18:03:06.088Z,4.20
2023-02-12T18:05:34.029Z,4.30
2023-02-12T18:08:03.534Z,4.30
2023-02-12T18:10:31.570Z,4.30
2023-02-12T18:13:00.868Z,4.30
2023-02-12T18:15:28.831Z,4.30
2023-02-12T18:17:56.882Z,4.30
2023-02-12T18:20:24.807Z,4.30
2023-02-12T18:22:52.713Z,4.30
2023-02-12T18:25:20.688Z,4.30
2023-02-12T18:27:48.640Z,4.30
2023-02-12T18:30:18.279Z,4.30
2023-02-12T18:32:46.221Z,4.30
2023-02-12T18:35:14.696Z,4.30
2023-02-12T18:37:43.453Z,4.30
2023-02-12T18:40:12.344Z,4.30
2023-02-12T18:42:40.278Z,4.30
2023-02-12T18:45:09.128Z,4.30
2023-02-12T18:47:38.512Z,4.30
2023-02-12T18:50:07.589Z,4.30
2023-02-12T18:52:37.132Z,4.40
2023-02-12T18:55:05.606Z,5.10
2023-02-12T18:57:33.613Z,4.40
2023-02-12T19:00:02.744Z,4.40
2023-02-12T19:02:30.798Z,4.40
2023-02-12T19:05:00.774Z,4.40
2023-02-12T19:07:28.734Z,4.40
2023-02-12T19:09:56.834Z,4.40
2023-02-12T19:12:25.971Z,4.40
2023-02-12T19:14:53.890Z,4.50
2023-02-12T19:17:21.938Z,4.40
2023-02-12T19:19:51.084Z,4.50
2023-02-12T19:22:20.776Z,4.50
2023-02-12T19:24:51.078Z,4.50
2023-02-12T19:27:19.256Z,4.50
2023-02-12T19:29:47.175Z,4.50
2023-02-12T19:32:15.149Z,4.50
2023-02-12T19:34:43.200Z,4.50
2023-02-12T19:37:12.988Z,4.50
2023-02-12T19:39:42.407Z,4.50
2023-02-12T19:42:12.249Z,4.50
2023-02-12T19:44:40.797Z,4.50
2023-02-12T19:47:09.532Z,5.10
2023-02-12T19:49:38.032Z,4.50
2023-02-12T19:52:06.446Z,5.30
2023-02-12T19:54:34.739Z,4.50
2023-02-12T19:57:09.022Z,4.50
2023-02-12T19:59:37.712Z,4.60
2023-02-12T20:02:05.770Z,4.50
2023-02-12T20:04:33.928Z,4.60
2023-02-12T20:07:01.937Z,4.60
2023-02-12T20:09:30.108Z,4.60
2023-02-12T20:11:58.462Z,4.60
2023-02-12T20:14:27.749Z,4.60
2023-02-12T20:16:58.483Z,4.60
2023-02-12T20:19:29.232Z,4.60
2023-02-12T20:21:57.808Z,4.60
2023-02-12T20:24:28.757Z,4.70
2023-02-12T20:26:57.450Z,4.70
2023-02-12T20:29:27.049Z,4.70
2023-02-12T20:31:55.142Z,4.70
2023-02-12T20:34:23.324Z,4.70
2023-02-12T20:36:51.349Z,4.70
2023-02-12T20:39:21.438Z,5.30
2023-02-12T20:41:50.289Z,4.70
2023-02-12T20:44:19.988Z,4.70
2023-02-12T20:46:54.436Z,4.70
2023-02-12T20:49:24.992Z,4.70
2023-02-12T20:51:53.255Z,4.70
2023-02-12T20:54:21.384Z,6.20
2023-02-12T20:56:50.327Z,4.70
2023-02-12T20:59:18.403Z,4.80
2023-02-12T21:01:47.016Z,4.80
2023-02-12T21:04:19.794Z,4.80
2023-02-12T21:06:48.410Z,5.20
2023-02-12T21:09:16.964Z,4.80
2023-02-12T21:11:46.036Z,4.80
2023-02-12T21:14:24.155Z,4.80
2023-02-12T21:16:53.320Z,4.80
2023-02-12T21:19:22.995Z,5.00
2023-02-12T21:21:50.964Z,4.80
2023-02-12T21:24:21.620Z,4.80
2023-02-12T21:26:49.978Z,4.80
2023-02-12T21:29:18.385Z,4.80
2023-02-12T21:31:48.350Z,5.60
2023-02-12T21:34:19.103Z,4.80
2023-02-12T21:36:49.533Z,4.80
2023-02-12T21:39:25.136Z,4.90
2023-02-12T21:41:55.604Z,5.00
2023-02-12T21:44:24.767Z,4.80
2023-02-12T21:46:52.996Z,4.90
2023-02-12T21:49:26.534Z,4.90
2023-02-12T21:51:58.212Z,4.90
2023-02-12T21:54:26.997Z,4.90
2023-02-12T21:56:54.940Z,4.90
2023-02-12T21:59:24.816Z,4.90
2023-02-12T22:01:55.296Z,4.90
2023-02-12T22:04:23.259Z,4.90
2023-02-12T22:06:52.630Z,4.90
2023-02-12T22:09:23.437Z,4.90
2023-02-12T22:11:52.336Z,4.90
2023-02-12T22:14:21.322Z,4.90
2023-02-12T22:16:49.587Z,4.90
2023-02-12T22:19:17.850Z,5.00
2023-02-12T22:21:45.870Z,5.00
2023-02-12T22:24:15.437Z,5.00
2023-02-12T22:26:45.256Z,5.00
2023-02-12T22:29:15.196Z,5.00
2023-02-12T22:31:45.201Z,5.20
2023-02-12T22:34:14.848Z,5.00
2023-02-12T22:36:43.904Z,5.00
2023-02-12T22:39:13.769Z,6.60
2023-02-12T22:41:43.090Z,5.00
2023-02-12T22:44:13.946Z,5.00
2023-02-12T22:46:43.002Z,5.00
2023-02-12T22:49:11.549Z,5.00
2023-02-12T22:51:39.826Z,5.00
2023-02-12T22:54:08.749Z,5.00
2023-02-12T22:56:36.679Z,5.00
2023-02-12T22:59:04.863Z,5.00
2023-02-12T23:01:34.588Z,5.00
2023-02-12T23:04:02.864Z,5.00
2023-02-12T23:06:32.705Z,5.00
2023-02-12T23:09:02.669Z,5.10
2023-02-12T23:11:31.806Z,5.10
2023-02-12T23:14:00.498Z,5.10
2023-02-12T23:16:28.934Z,5.10
2023-02-12T23:18:59.682Z,5.10
2023-02-12T23:21:29.846Z,5.10
2023-02-12T23:23:59.029Z,5.00
2023-02-12T23:26:27.656Z,5.10
2023-02-12T23:28:55.738Z,5.10
2023-02-12T23:31:23.933Z,5.10
2023-02-12T23:33:52.257Z,5.10
2023-02-12T23:36:21.625Z,5.10
2023-02-12T23:38:49.653Z,5.10
2023-02-12T23:41:17.618Z,5.90
2023-02-12T23:43:45.556Z,5.10
2023-02-12T23:46:13.506Z,5.10
2023-02-12T23:48:41.470Z,5.10
2023-02-12T23:51:10.176Z,5.10
2023-02-12T23:53:39.466Z,5.10
2023-02-12T23:56:08.114Z,5.10
2023-02-12T23:58:36.023Z,5.10
